createdAt,value
2019-06-10T16:54:47.290Z,91.60
2019-06-10T16:58:52.399Z,92.50
2019-06-10T17:02:57.339Z,92.70
2019-06-10T17:07:02.352Z,92.90
2019-06-10T17:11:07.217Z,92.90
2019-06-10T17:15:13.011Z,93.30
2019-06-10T17:19:18.613Z,94.40
2019-06-10T17:23:27.194Z,94.30
2019-06-10T17:27:32.715Z,95.30
2019-06-10T17:31:38.071Z,95.10
2019-06-10T17:35:43.366Z,94.90
2019-06-10T17:39:49.707Z,95.10
2019-06-10T17:44:02.617Z,95.50
2019-06-10T17:48:07.587Z,95.90
2019-06-10T17:52:12.995Z,95.80
2019-06-10T17:56:18.018Z,96.20
2019-06-10T18:00:24.658Z,96.90
2019-06-10T18:04:29.370Z,97.20
2019-06-10T18:08:36.324Z,97.20
2019-06-10T18:12:42.305Z,95.40
2019-06-10T18:16:47.190Z,97.60
2019-06-10T18:20:53.680Z,96.20
2019-06-10T18:24:58.431Z,97.90
2019-06-10T18:29:08.214Z,97.60
2019-06-10T18:33:10.951Z,98.70
2019-06-10T18:37:16.556Z,98.60
2019-06-10T18:41:22.310Z,98.50
2019-06-10T18:45:27.676Z,98.50
2019-06-10T18:49:35.788Z,98.60
2019-06-10T18:53:42.600Z,99.40
2019-06-10T18:57:48.411Z,99.70
2019-06-10T19:01:53.753Z,99.50
2019-06-10T19:05:59.030Z,99.70
2019-06-10T19:10:05.219Z,99.90
2019-06-10T19:14:12.634Z,99.20
2019-06-10T19:18:16.710Z,99.50
2019-06-10T19:22:22.511Z,99.90
2019-06-10T19:26:27.490Z,99.50
2019-06-10T19:30:35.978Z,99.70
2019-06-10T19:34:39.498Z,99.90
2019-06-10T19:38:44.860Z,99.90
2019-06-10T19:42:49.779Z,99.90
2019-06-10T19:46:55.165Z,99.90
2019-06-10T19:51:02.901Z,99.90
2019-06-10T19:55:07.537Z,99.90
2019-06-10T19:59:12.854Z,99.90
2019-06-10T20:03:18.291Z,99.90
2019-06-10T20:07:23.903Z,99.90
2019-06-10T20:11:29.147Z,99.90
2019-06-10T20:15:35.325Z,99.90
2019-06-10T20:19:43.135Z,99.90
2019-06-10T20:23:47.897Z,99.90
2019-06-10T20:27:54.036Z,99.90
2019-06-10T20:31:59.229Z,99.90
2019-06-10T20:36:07.074Z,99.90
2019-06-10T20:40:13.020Z,99.90
2019-06-10T20:44:18.331Z,99.90
2019-06-10T20:48:24.644Z,99.90
2019-06-10T20:52:29.582Z,99.90
2019-06-10T20:56:34.285Z,99.90
2019-06-10T21:00:45.670Z,99.90
2019-06-10T21:04:46.727Z,99.90
2019-06-10T21:08:54.468Z,99.90
2019-06-10T21:12:59.567Z,99.90
2019-06-10T21:17:04.406Z,99.90
2019-06-10T21:21:09.444Z,99.90
2019-06-10T21:25:14.491Z,99.90
2019-06-10T21:29:19.286Z,99.90
2019-06-10T21:33:24.004Z,99.90
2019-06-10T21:37:28.699Z,99.90
2019-06-10T21:41:33.435Z,99.90
2019-06-10T21:45:38.147Z,99.90
2019-06-10T21:49:44.282Z,99.90
2019-06-10T21:53:51.295Z,99.90
2019-06-10T21:57:56.094Z,99.90
2019-06-10T22:02:02.318Z,99.90
2019-06-10T22:06:07.181Z,99.90
2019-06-10T22:10:12.786Z,99.90
2019-06-10T22:14:17.668Z,99.90
2019-06-10T22:18:22.891Z,99.90
2019-06-10T22:22:27.814Z,99.90
2019-06-10T22:26:32.940Z,99.90
2019-06-10T22:30:37.629Z,99.90
2019-06-10T22:34:42.320Z,99.90
2019-06-10T22:38:47.864Z,99.90
2019-06-10T22:42:55.158Z,99.90
2019-06-10T22:47:00.085Z,99.90
2019-06-10T22:51:05.479Z,99.90
2019-06-10T22:55:12.951Z,99.90
2019-06-10T22:59:17.382Z,99.90
2019-06-10T23:03:22.399Z,99.90
2019-06-10T23:07:27.168Z,99.90
2019-06-10T23:11:32.342Z,99.90
2019-06-10T23:15:37.345Z,99.90
2019-06-10T23:19:42.881Z,99.90
2019-06-10T23:23:49.416Z,99.90
2019-06-10T23:27:56.346Z,99.90
2019-06-10T23:32:06.436Z,99.90
2019-06-10T23:36:08.106Z,99.90
2019-06-10T23:40:12.878Z,99.90
2019-06-10T23:44:17.654Z,99.90
2019-06-10T23:48:22.943Z,99.90
2019-06-10T23:52:27.657Z,99.90
2019-06-10T23:56:32.650Z,99.90
